Time;durP1;ratioP1;P1;durP2;ratioP2;P2;SDS_P1;SDS_P2;PMS_P1;PMS_P2;Temp;Humidity;BMP_temperature;BMP_pressure;BME280_temperature;BME280_humidity;BME280_pressure;Samples;Min_cycle;Max_cycle;Signal;HPM_P1;HPM_P2
2022/07/16 00:02:19;;;;;;;13.52;11.20;;;5.50;99.90;;;;;;5091696;28;20419;-86
2022/07/16 00:04:47;;;;;;;11.40;10.20;;;5.70;99.90;;;;;;5079782;28;20389;-88
2022/07/16 00:07:14;;;;;;;12.55;10.10;;;5.80;99.90;;;;;;5088764;28;21011;-86
2022/07/16 00:09:41;;;;;;;11.13;9.60;;;6.00;99.90;;;;;;5085531;28;20467;-85
2022/07/16 00:12:08;;;;;;;10.70;9.60;;;6.10;99.90;;;;;;5078970;28;20401;-85
2022/07/16 00:14:36;;;;;;;10.50;9.40;;;6.20;99.90;;;;;;5088000;28;20384;-82
2022/07/16 00:17:03;;;;;;;10.13;9.00;;;6.30;99.90;;;;;;5087705;28;20426;-84
2022/07/16 00:19:31;;;;;;;10.17;9.10;;;6.60;99.90;;;;;;5090359;28;20857;-84
2022/07/16 00:21:58;;;;;;;9.45;8.52;;;6.70;99.90;;;;;;5095391;28;20457;-84
2022/07/16 00:24:27;;;;;;;10.43;9.02;;;7.00;99.90;;;;;;5089640;28;20387;-86
2022/07/16 00:26:54;;;;;;;10.30;9.18;;;7.20;99.90;;;;;;5090412;28;20385;-82
2022/07/16 00:29:22;;;;;;;10.45;8.95;;;7.20;99.90;;;;;;5089685;28;20435;-81
2022/07/16 00:31:50;;;;;;;9.10;8.20;;;7.30;99.90;;;;;;5090437;28;20885;-80
2022/07/16 00:34:18;;;;;;;9.20;7.33;;;7.40;99.90;;;;;;5090414;28;20369;-83
2022/07/16 00:36:45;;;;;;;5.55;4.88;;;7.60;99.90;;;;;;5089598;28;20473;-86
2022/07/16 00:39:13;;;;;;;5.05;4.55;;;7.90;99.90;;;;;;5088233;28;20432;-89
2022/07/16 00:41:41;;;;;;;5.05;4.55;;;8.10;99.90;;;;;;5090686;28;20391;-83
2022/07/16 00:44:11;;;;;;;4.10;3.70;;;8.40;99.90;;;;;;5093423;28;20397;-88
2022/07/16 00:46:39;;;;;;;3.72;3.40;;;8.60;99.90;;;;;;5094216;28;20369;-88
2022/07/16 00:49:07;;;;;;;3.65;3.30;;;8.90;99.90;;;;;;5090028;28;20376;-85
2022/07/16 00:51:35;;;;;;;4.47;3.50;;;9.10;99.90;;;;;;5076131;28;20374;-79
2022/07/16 00:54:04;;;;;;;3.08;2.78;;;9.00;99.90;;;;;;5088097;28;20752;-87
2022/07/16 00:56:31;;;;;;;2.78;2.58;;;9.10;99.90;;;;;;5089668;28;20510;-89
2022/07/16 00:58:58;;;;;;;3.03;2.43;;;9.10;99.90;;;;;;5089630;28;20490;-89
2022/07/16 01:01:26;;;;;;;2.63;2.35;;;9.10;99.90;;;;;;5088249;28;20387;-87
2022/07/16 01:03:53;;;;;;;2.88;2.60;;;9.20;99.90;;;;;;5089327;28;20405;-79
2022/07/16 01:06:24;;;;;;;5.30;3.00;;;9.40;99.90;;;;;;5099610;28;20391;-81
2022/07/16 01:08:51;;;;;;;5.32;4.13;;;9.50;99.90;;;;;;5102584;28;20380;-82
2022/07/16 01:11:20;;;;;;;5.05;3.97;;;9.50;99.90;;;;;;5093009;28;20482;-84
2022/07/16 01:13:50;;;;;;;4.22;3.83;;;9.50;99.90;;;;;;5078888;28;20745;-81
2022/07/16 01:16:19;;;;;;;5.82;3.97;;;9.50;99.90;;;;;;5086801;28;20455;-83
2022/07/16 01:18:47;;;;;;;7.00;4.78;;;9.50;99.90;;;;;;5092200;28;20463;-84
2022/07/16 01:21:16;;;;;;;4.00;3.50;;;9.50;99.90;;;;;;5102909;28;20386;-85
2022/07/16 01:23:45;;;;;;;4.00;2.90;;;9.40;99.90;;;;;;5092508;28;20376;-89
2022/07/16 01:26:13;;;;;;;4.03;3.10;;;9.40;99.90;;;;;;5094985;28;20388;-86
2022/07/16 01:28:40;;;;;;;3.55;2.90;;;9.50;99.90;;;;;;5081027;28;20375;-83
2022/07/16 01:31:07;;;;;;;4.60;2.80;;;9.60;99.90;;;;;;5102338;28;20923;-87
2022/07/16 01:33:37;;;;;;;2.97;2.53;;;9.80;99.90;;;;;;5086639;28;20391;-83
2022/07/16 01:36:09;;;;;;;2.80;2.60;;;10.00;99.90;;;;;;5094697;28;20376;-81
2022/07/16 01:38:42;;;;;;;2.90;2.70;;;10.00;99.90;;;;;;5096178;28;20887;-84
2022/07/16 01:41:11;;;;;;;3.95;2.80;;;10.20;99.90;;;;;;5095336;28;20414;-86
2022/07/16 01:43:38;;;;;;;5.20;2.60;;;10.50;99.90;;;;;;5094524;28;20451;-85
2022/07/16 01:46:06;;;;;;;2.97;2.60;;;10.60;99.90;;;;;;5094609;28;20388;-87
2022/07/16 01:48:34;;;;;;;2.95;2.42;;;10.70;99.90;;;;;;5094960;28;20425;-84
2022/07/16 01:51:01;;;;;;;2.83;2.33;;;10.80;99.90;;;;;;5094450;28;20890;-87
2022/07/16 01:53:29;;;;;;;2.92;2.10;;;10.80;99.90;;;;;;5094163;28;20388;-82
2022/07/16 01:55:57;;;;;;;3.78;2.13;;;10.90;99.90;;;;;;5092149;28;20881;-85
2022/07/16 01:58:25;;;;;;;2.75;2.13;;;11.00;99.90;;;;;;5094380;28;20387;-83
2022/07/16 02:00:53;;;;;;;2.53;2.30;;;11.10;99.90;;;;;;5094340;28;20748;-81
2022/07/16 02:03:20;;;;;;;2.67;2.30;;;11.10;99.90;;;;;;5094335;28;20418;-88
2022/07/16 02:05:47;;;;;;;2.50;2.30;;;11.10;99.90;;;;;;5093934;28;20388;-82
2022/07/16 02:08:15;;;;;;;3.95;2.70;;;11.40;99.90;;;;;;5094119;28;20931;-83
2022/07/16 02:10:42;;;;;;;3.10;2.25;;;11.50;99.90;;;;;;5088969;28;20484;-86
2022/07/16 02:13:09;;;;;;;3.50;2.30;;;11.60;99.90;;;;;;5099043;28;20389;-85
2022/07/16 02:15:37;;;;;;;2.27;2.00;;;12.00;99.90;;;;;;5093985;28;20377;-83
2022/07/16 02:18:04;;;;;;;2.20;2.00;;;12.10;99.90;;;;;;5094300;28;20380;-87
2022/07/16 02:20:31;;;;;;;2.10;2.00;;;12.20;99.90;;;;;;5093912;28;20401;-84
2022/07/16 02:22:58;;;;;;;1.95;1.80;;;12.30;99.90;;;;;;5094083;28;20403;-83
2022/07/16 02:25:26;;;;;;;1.98;1.80;;;12.50;99.90;;;;;;5093946;28;20967;-85
2022/07/16 02:28:08;;;;;;;1.80;1.70;;;12.80;99.50;;;;;;5084323;28;20377;-82
2022/07/16 02:30:41;;;;;;;2.20;1.60;;;13.00;99.30;;;;;;5100223;28;20742;-83
2022/07/16 02:33:09;;;;;;;2.00;1.70;;;13.20;98.20;;;;;;5093927;28;20935;-85
2022/07/16 02:35:37;;;;;;;2.08;1.60;;;13.30;96.80;;;;;;5084910;28;20472;-84
2022/07/16 02:38:06;;;;;;;2.72;1.80;;;13.20;97.60;;;;;;5089922;28;20391;-86
2022/07/16 02:40:34;;;;;;;2.40;1.70;;;13.40;97.50;;;;;;5092662;28;20478;-83
2022/07/16 02:43:03;;;;;;;2.00;1.70;;;13.20;97.30;;;;;;5103196;28;20428;-84
2022/07/16 02:45:31;;;;;;;3.45;1.70;;;13.20;98.00;;;;;;5091289;28;20469;-84
2022/07/16 02:47:58;;;;;;;2.03;1.50;;;13.00;96.10;;;;;;5093362;28;21144;-89
2022/07/16 02:50:26;;;;;;;2.17;1.50;;;12.90;95.10;;;;;;5092951;28;20480;-82
2022/07/16 02:52:54;;;;;;;1.60;1.50;;;13.00;95.50;;;;;;5093268;28;20404;-85
2022/07/16 02:55:21;;;;;;;1.85;1.65;;;13.20;96.10;;;;;;5093181;28;20384;-85
2022/07/16 02:57:49;;;;;;;1.88;1.60;;;13.40;94.40;;;;;;5093107;28;20373;-83
2022/07/16 03:00:17;;;;;;;4.93;1.75;;;13.20;94.20;;;;;;5089586;28;20404;-83
2022/07/16 03:02:45;;;;;;;2.15;1.95;;;13.10;95.10;;;;;;5078985;28;20389;-82
2022/07/16 03:05:13;;;;;;;2.03;1.42;;;13.00;95.60;;;;;;5086551;28;20400;-81
2022/07/16 03:07:40;;;;;;;2.10;1.55;;;13.10;94.80;;;;;;5094388;28;20377;-83
2022/07/16 03:10:09;;;;;;;3.08;1.65;;;13.20;93.60;;;;;;5093072;28;20394;-82
2022/07/16 03:12:36;;;;;;;2.30;1.75;;;13.20;94.70;;;;;;5079690;28;20892;-83
2022/07/16 03:15:05;;;;;;;2.37;1.70;;;13.30;92.60;;;;;;5098293;28;20392;-86
2022/07/16 03:17:32;;;;;;;3.78;1.80;;;13.20;93.60;;;;;;5092445;28;20379;-82
2022/07/16 03:19:59;;;;;;;2.30;1.60;;;13.20;94.00;;;;;;5092224;28;20401;-85
2022/07/16 03:22:26;;;;;;;2.53;1.50;;;13.30;93.10;;;;;;5093304;28;20376;-84
2022/07/16 03:24:53;;;;;;;3.42;1.70;;;13.10;94.10;;;;;;5092046;28;20392;-82
2022/07/16 03:27:21;;;;;;;2.00;1.60;;;13.20;95.40;;;;;;5098885;28;20864;-85
2022/07/16 03:29:48;;;;;;;2.45;1.70;;;13.50;94.60;;;;;;5092350;28;20433;-86
2022/07/16 03:32:15;;;;;;;2.25;1.60;;;13.80;94.80;;;;;;5093418;28;20388;-87
2022/07/16 03:34:42;;;;;;;1.75;1.38;;;14.10;93.70;;;;;;5092807;28;20377;-87
2022/07/16 03:37:09;;;;;;;1.52;1.40;;;14.20;93.20;;;;;;5092547;28;20391;-84
2022/07/16 03:39:37;;;;;;;2.25;1.30;;;14.30;92.90;;;;;;5092378;28;20404;-84
2022/07/16 03:42:04;;;;;;;1.50;1.35;;;14.40;92.30;;;;;;5098086;28;20388;-87
2022/07/16 03:44:31;;;;;;;2.63;1.30;;;14.40;92.70;;;;;;5108639;28;20375;-87
2022/07/16 03:46:59;;;;;;;1.67;1.20;;;14.50;93.10;;;;;;5108205;28;20368;-85
2022/07/16 03:49:26;;;;;;;1.30;1.20;;;14.70;92.60;;;;;;5111562;28;20434;-87
2022/07/16 03:51:53;;;;;;;3.22;1.40;;;14.90;91.40;;;;;;5109983;28;20380;-85
2022/07/16 03:54:20;;;;;;;1.60;1.50;;;14.70;91.60;;;;;;5109071;28;20375;-91
2022/07/16 03:56:47;;;;;;;1.53;1.33;;;14.80;91.70;;;;;;5107714;28;20399;-86
2022/07/16 03:59:15;;;;;;;1.58;1.30;;;14.80;91.80;;;;;;5099902;28;20509;-83
2022/07/16 04:01:42;;;;;;;1.30;1.20;;;15.00;91.50;;;;;;5101919;28;20408;-81
2022/07/16 04:04:09;;;;;;;2.08;1.45;;;15.00;91.40;;;;;;5107926;28;20443;-83
2022/07/16 04:06:36;;;;;;;1.50;1.40;;;15.00;91.60;;;;;;5107591;28;20405;-85
2022/07/16 04:09:03;;;;;;;1.90;1.30;;;15.10;91.50;;;;;;5106593;28;20413;-85
2022/07/16 04:11:31;;;;;;;1.52;1.33;;;15.10;91.10;;;;;;5106105;28;20481;-85
2022/07/16 04:13:58;;;;;;;2.70;1.45;;;15.00;91.70;;;;;;5099664;28;20377;-83
2022/07/16 04:16:25;;;;;;;3.20;1.80;;;15.10;91.10;;;;;;5108269;28;20491;-86
2022/07/16 04:18:52;;;;;;;1.83;1.40;;;15.10;91.40;;;;;;5110980;28;20404;-85
2022/07/16 04:21:19;;;;;;;2.03;1.60;;;15.20;90.90;;;;;;5108397;28;20455;-85
2022/07/16 04:23:46;;;;;;;1.80;1.58;;;15.10;90.10;;;;;;5106339;28;20368;-86
2022/07/16 04:26:14;;;;;;;2.30;1.42;;;14.80;91.60;;;;;;5094478;28;20854;-83
2022/07/16 04:28:41;;;;;;;3.22;2.10;;;14.80;92.20;;;;;;5091178;28;20429;-83
2022/07/16 04:31:08;;;;;;;4.20;3.20;;;14.60;92.40;;;;;;5102421;28;20862;-82
2022/07/16 04:33:35;;;;;;;3.45;2.30;;;14.70;92.60;;;;;;5077186;28;20404;-87
2022/07/16 04:36:02;;;;;;;3.60;1.53;;;14.80;92.90;;;;;;5091744;28;20400;-88
2022/07/16 04:38:30;;;;;;;3.67;1.70;;;15.10;92.70;;;;;;5091218;28;20399;-88
2022/07/16 04:40:57;;;;;;;2.47;2.25;;;15.10;92.20;;;;;;5092433;28;20921;-82
2022/07/16 04:43:24;;;;;;;2.92;2.08;;;15.00;90.70;;;;;;5103207;28;20746;-83
2022/07/16 04:45:51;;;;;;;3.55;1.67;;;14.90;91.90;;;;;;5091423;28;20372;-85
2022/07/16 04:48:18;;;;;;;2.45;1.70;;;14.90;92.10;;;;;;5091298;28;20437;-81
2022/07/16 04:50:45;;;;;;;2.67;1.60;;;14.90;92.30;;;;;;5091347;28;20381;-82
2022/07/16 04:53:13;;;;;;;2.53;1.83;;;14.70;92.20;;;;;;5093582;28;20380;-90
2022/07/16 04:55:40;;;;;;;3.15;1.75;;;14.60;92.30;;;;;;5091577;28;20451;-89
2022/07/16 04:58:07;;;;;;;2.65;2.00;;;14.40;92.20;;;;;;5092246;28;20430;-85
2022/07/16 05:00:35;;;;;;;4.10;2.10;;;14.30;93.20;;;;;;5086436;28;20407;-88
2022/07/16 05:03:02;;;;;;;2.63;1.98;;;14.20;94.00;;;;;;5079360;28;20370;-84
2022/07/16 05:05:35;;;;;;;4.50;2.00;;;14.10;94.60;;;;;;5086821;28;20380;-83
2022/07/16 05:08:03;;;;;;;3.95;3.10;;;14.10;93.80;;;;;;5089655;28;20369;-85
2022/07/16 05:10:31;;;;;;;4.47;2.30;;;14.10;94.50;;;;;;5089769;28;20384;-85
2022/07/16 05:12:59;;;;;;;3.10;1.80;;;14.00;95.00;;;;;;5087343;28;20395;-86
2022/07/16 05:15:27;;;;;;;3.42;2.22;;;14.00;95.80;;;;;;5093328;28;20776;-84
2022/07/16 05:17:54;;;;;;;3.08;1.58;;;13.90;96.10;;;;;;5089719;28;20387;-83
2022/07/16 05:20:22;;;;;;;1.98;1.70;;;13.80;95.30;;;;;;5089490;28;20487;-85
2022/07/16 05:22:49;;;;;;;2.55;1.98;;;13.70;96.40;;;;;;5089135;28;20441;-84
2022/07/16 05:25:16;;;;;;;3.25;1.90;;;13.70;96.60;;;;;;5089502;28;20856;-86
2022/07/16 05:27:44;;;;;;;3.50;2.10;;;13.60;96.80;;;;;;5090127;28;20376;-84
2022/07/16 05:30:12;;;;;;;4.72;2.85;;;13.50;97.40;;;;;;5089224;28;20446;-84
2022/07/16 05:32:40;;;;;;;3.30;3.00;;;13.50;98.60;;;;;;5089207;28;20460;-84
2022/07/16 05:35:08;;;;;;;4.38;3.03;;;13.30;99.30;;;;;;5089183;28;20388;-84
2022/07/16 05:37:35;;;;;;;5.95;3.60;;;13.20;99.80;;;;;;5088620;28;20388;-82
2022/07/16 05:40:03;;;;;;;4.97;3.85;;;13.10;99.90;;;;;;5089325;28;20483;-83
2022/07/16 05:42:30;;;;;;;7.63;5.10;;;13.00;99.90;;;;;;5089487;28;20372;-83
2022/07/16 05:44:57;;;;;;;5.27;3.83;;;13.00;99.90;;;;;;5088901;28;20433;-85
2022/07/16 05:47:24;;;;;;;4.95;3.50;;;12.90;99.90;;;;;;5090536;28;20372;-84
2022/07/16 05:49:51;;;;;;;6.07;4.40;;;12.80;99.90;;;;;;5092282;28;20418;-88
2022/07/16 05:52:18;;;;;;;6.53;4.95;;;12.80;99.90;;;;;;5076017;28;20720;-83
2022/07/16 05:54:45;;;;;;;7.50;5.40;;;12.80;99.90;;;;;;5089327;28;20431;-82
2022/07/16 05:57:13;;;;;;;5.70;5.03;;;12.70;99.90;;;;;;5089051;28;20376;-87
2022/07/16 05:59:40;;;;;;;6.53;4.75;;;12.60;99.90;;;;;;5088580;28;20409;-84
2022/07/16 06:02:07;;;;;;;6.47;4.15;;;12.60;99.90;;;;;;5089301;28;20445;-85
2022/07/16 06:04:34;;;;;;;6.43;4.03;;;12.50;99.90;;;;;;5089089;28;20489;-82
2022/07/16 06:07:01;;;;;;;4.75;3.75;;;12.50;99.90;;;;;;5093644;28;20387;-87
2022/07/16 06:09:28;;;;;;;6.93;4.88;;;12.40;99.90;;;;;;5090013;28;20372;-82
2022/07/16 06:11:55;;;;;;;6.68;5.00;;;12.30;99.90;;;;;;5080144;28;20409;-82
2022/07/16 06:14:22;;;;;;;5.78;5.03;;;12.20;99.90;;;;;;5092526;28;20394;-84
2022/07/16 06:16:50;;;;;;;6.78;6.07;;;12.10;99.90;;;;;;5093592;28;20375;-85
2022/07/16 06:19:17;;;;;;;6.80;5.57;;;12.20;99.90;;;;;;5093185;28;20432;-85
2022/07/16 06:21:44;;;;;;;7.32;5.45;;;12.10;99.90;;;;;;5093885;28;20387;-84
2022/07/16 06:24:11;;;;;;;39.10;30.38;;;12.00;99.90;;;;;;5092374;28;20377;-84
2022/07/16 06:26:46;;;;;;;27.17;20.20;;;12.00;99.90;;;;;;5093116;28;20372;-83
2022/07/16 06:29:15;;;;;;;10.57;7.85;;;12.00;99.90;;;;;;5094234;28;20387;-83
2022/07/16 06:31:43;;;;;;;10.85;7.05;;;11.90;99.90;;;;;;5092969;28;20463;-82
2022/07/16 06:34:11;;;;;;;9.02;5.18;;;11.90;99.90;;;;;;5093231;28;20389;-82
2022/07/16 06:36:38;;;;;;;5.72;4.63;;;11.90;99.90;;;;;;5092619;28;20385;-83
2022/07/16 06:39:05;;;;;;;8.23;6.40;;;11.90;99.90;;;;;;5093060;28;20400;-86
2022/07/16 06:41:33;;;;;;;6.70;5.50;;;11.90;99.90;;;;;;5092963;28;20889;-84
2022/07/16 06:44:00;;;;;;;5.40;4.90;;;11.90;99.90;;;;;;5101035;28;20406;-84
2022/07/16 06:46:27;;;;;;;5.88;4.60;;;11.80;99.90;;;;;;5099064;27;20377;-87
2022/07/16 06:48:54;;;;;;;6.07;5.10;;;11.70;99.90;;;;;;5078877;28;20368;-85
2022/07/16 06:51:21;;;;;;;6.68;5.47;;;11.60;99.90;;;;;;5092865;28;20416;-86
2022/07/16 06:53:49;;;;;;;6.72;6.13;;;11.60;99.90;;;;;;5091547;28;20368;-84
2022/07/16 06:56:16;;;;;;;7.18;6.07;;;11.60;99.90;;;;;;5092728;28;20403;-83
2022/07/16 06:58:43;;;;;;;7.68;5.97;;;11.50;99.90;;;;;;5092474;28;20384;-85
2022/07/16 07:01:11;;;;;;;8.68;6.93;;;11.50;99.90;;;;;;5093658;28;20427;-84
2022/07/16 07:03:39;;;;;;;8.77;7.15;;;11.40;99.90;;;;;;5078171;28;20366;-86
2022/07/16 07:06:07;;;;;;;8.73;6.90;;;11.20;99.90;;;;;;5092631;28;20384;-84
2022/07/16 07:08:36;;;;;;;6.40;5.27;;;11.20;99.90;;;;;;5089434;28;20755;-83
2022/07/16 07:11:04;;;;;;;5.72;5.20;;;11.10;99.90;;;;;;5093596;28;20424;-85
2022/07/16 07:13:31;;;;;;;6.78;5.50;;;11.10;99.90;;;;;;5085122;28;20453;-85
2022/07/16 07:15:59;;;;;;;9.40;5.82;;;10.90;99.90;;;;;;5092195;28;20380;-85
2022/07/16 07:18:27;;;;;;;7.22;5.97;;;10.80;99.90;;;;;;5093487;28;20450;-85
2022/07/16 07:20:59;;;;;;;14.93;11.45;;;10.70;99.90;;;;;;5090199;28;20408;-83
2022/07/16 07:23:29;;;;;;;162.82;122.85;;;10.60;99.90;;;;;;5079262;28;20380;-86
2022/07/16 07:25:56;;;;;;;128.23;99.95;;;10.60;99.90;;;;;;5092419;28;20395;-84
2022/07/16 07:28:23;;;;;;;93.83;66.63;;;10.40;99.90;;;;;;5092126;28;20364;-84
2022/07/16 07:30:51;;;;;;;32.67;23.60;;;10.30;99.90;;;;;;5099558;28;20858;-85
2022/07/16 07:33:18;;;;;;;64.97;48.10;;;10.30;99.90;;;;;;5097401;28;20383;-83
2022/07/16 07:35:45;;;;;;;42.25;33.17;;;10.20;99.90;;;;;;5102288;28;20474;-85
2022/07/16 07:38:12;;;;;;;42.05;31.83;;;10.20;99.90;;;;;;5089538;28;20388;-84
2022/07/16 07:40:39;;;;;;;37.38;29.38;;;10.10;99.90;;;;;;5079678;28;20411;-87
2022/07/16 07:43:06;;;;;;;31.40;23.63;;;10.10;99.90;;;;;;5091715;28;20375;-85
2022/07/16 07:45:34;;;;;;;32.63;24.30;;;10.00;99.90;;;;;;5096255;28;20763;-82
2022/07/16 07:48:01;;;;;;;24.58;20.05;;;10.00;99.90;;;;;;5091745;28;20432;-82
2022/07/16 07:50:28;;;;;;;20.23;16.65;;;9.90;99.90;;;;;;5091332;28;20404;-86
2022/07/16 07:52:55;;;;;;;19.45;15.90;;;9.90;99.90;;;;;;5091614;28;20904;-82
2022/07/16 07:55:22;;;;;;;23.00;18.80;;;9.90;99.90;;;;;;5091391;28;20384;-84
2022/07/16 07:57:49;;;;;;;51.35;39.50;;;9.90;99.90;;;;;;5091369;28;20455;-86
2022/07/16 08:00:17;;;;;;;62.55;49.67;;;9.90;99.90;;;;;;5095519;28;20403;-84
2022/07/16 08:02:46;;;;;;;48.42;38.00;;;9.90;99.90;;;;;;5091263;28;20432;-86
2022/07/16 08:05:13;;;;;;;31.27;25.27;;;9.90;99.90;;;;;;5091147;28;20803;-85
2022/07/16 08:07:41;;;;;;;36.92;30.17;;;9.90;99.90;;;;;;5093835;28;20372;-83
2022/07/16 08:10:09;;;;;;;40.17;31.88;;;9.90;99.90;;;;;;5091920;28;20381;-85
2022/07/16 08:12:37;;;;;;;37.45;30.48;;;9.80;99.90;;;;;;5076587;28;20418;-82
2022/07/16 08:15:06;;;;;;;32.40;26.70;;;9.80;99.90;;;;;;5091021;28;20361;-84
2022/07/16 08:17:33;;;;;;;13.80;10.85;;;9.70;99.90;;;;;;5083370;28;20386;-85
2022/07/16 08:20:00;;;;;;;21.80;15.90;;;9.70;99.90;;;;;;5076813;28;20399;-82
2022/07/16 08:22:27;;;;;;;20.08;16.30;;;9.70;99.90;;;;;;5103121;28;20854;-83
2022/07/16 08:27:51;;;;;;;20.17;12.30;;;9.70;99.90;;;;;;5048212;28;20713;-87
2022/07/16 08:30:19;;;;;;;19.23;11.00;;;9.60;99.90;;;;;;5047063;28;21029;-86
2022/07/16 08:32:46;;;;;;;22.23;12.38;;;9.60;99.90;;;;;;5048173;28;20842;-83
2022/07/16 08:35:13;;;;;;;16.35;11.52;;;9.60;99.90;;;;;;5047654;28;20391;-84
2022/07/16 08:37:43;;;;;;;16.73;11.60;;;9.60;99.90;;;;;;5047264;28;20469;-86
2022/07/16 08:40:19;;;;;;;22.35;14.18;;;9.50;99.90;;;;;;5047833;28;20502;-83
2022/07/16 08:42:47;;;;;;;21.25;15.60;;;9.50;99.90;;;;;;5048330;28;20752;-84
2022/07/16 08:45:18;;;;;;;22.50;15.50;;;9.50;99.90;;;;;;5047823;28;20989;-87
2022/07/16 08:47:45;;;;;;;25.60;21.02;;;9.50;99.90;;;;;;5048242;28;20384;-84
2022/07/16 08:50:14;;;;;;;31.40;23.75;;;9.50;99.90;;;;;;5047703;28;20815;-83
2022/07/16 08:52:52;;;;;;;23.70;21.10;;;9.40;99.90;;;;;;5047850;28;20375;-83
2022/07/16 08:55:22;;;;;;;30.85;22.50;;;9.40;99.90;;;;;;5047883;28;20392;-86
2022/07/16 08:57:50;;;;;;;31.88;25.33;;;9.30;99.90;;;;;;5049550;28;20848;-84
2022/07/16 09:00:19;;;;;;;30.43;24.83;;;9.30;99.90;;;;;;5047277;28;20493;-85
2022/07/16 09:02:47;;;;;;;25.77;20.95;;;9.30;99.90;;;;;;5047771;28;20388;-84
2022/07/16 09:05:15;;;;;;;25.98;19.15;;;9.30;99.90;;;;;;5083234;28;20393;-86
2022/07/16 09:07:45;;;;;;;24.55;19.08;;;9.30;99.90;;;;;;5090650;28;20429;-84
2022/07/16 09:10:12;;;;;;;24.15;19.80;;;9.30;99.90;;;;;;5090305;28;20953;-84
2022/07/16 09:12:42;;;;;;;25.10;19.60;;;9.30;99.90;;;;;;5076082;28;20758;-86
2022/07/16 09:15:28;;;;;;;23.40;18.13;;;9.30;99.90;;;;;;5090622;28;20384;-84
2022/07/16 09:18:16;;;;;;;22.50;18.08;;;9.30;99.90;;;;;;5090417;28;20372;-83
2022/07/16 09:20:46;;;;;;;15.00;13.32;;;9.40;99.90;;;;;;5090378;28;20413;-87
2022/07/16 09:23:27;;;;;;;14.15;12.15;;;9.50;99.90;;;;;;5090149;28;20369;-84
2022/07/16 09:25:56;;;;;;;12.57;10.32;;;9.50;99.90;;;;;;5090265;28;20389;-84
2022/07/16 09:28:25;;;;;;;12.07;10.07;;;9.60;99.90;;;;;;5095025;28;20443;-84
2022/07/16 09:30:53;;;;;;;14.25;10.27;;;9.70;99.90;;;;;;5099666;28;20388;-85
2022/07/16 09:33:23;;;;;;;12.23;10.30;;;9.80;99.90;;;;;;5089761;28;20506;-84
2022/07/16 09:36:08;;;;;;;15.07;10.50;;;9.90;99.90;;;;;;5090129;28;20372;-87
2022/07/16 09:38:53;;;;;;;12.32;9.25;;;10.00;99.90;;;;;;5089818;28;20385;-84
2022/07/16 09:41:22;;;;;;;11.88;8.63;;;10.00;99.90;;;;;;5089970;28;20491;-83
2022/07/16 09:43:50;;;;;;;11.77;9.25;;;10.10;99.90;;;;;;5090566;28;20368;-82
2022/07/16 09:46:24;;;;;;;11.80;9.37;;;10.20;99.90;;;;;;5102513;28;20461;-84
2022/07/16 09:48:52;;;;;;;12.68;10.40;;;10.20;99.90;;;;;;5091793;28;20365;-84
2022/07/16 09:51:30;;;;;;;13.45;9.73;;;10.20;99.90;;;;;;5094157;28;20464;-85
2022/07/16 09:53:57;;;;;;;11.85;8.32;;;10.10;99.90;;;;;;5094081;28;20713;-84
2022/07/16 09:56:29;;;;;;;10.23;7.57;;;9.60;99.90;;;;;;5093820;28;20372;-83
2022/07/16 09:59:00;;;;;;;6.85;5.85;;;10.20;99.90;;;;;;5093595;28;20407;-85
2022/07/16 10:01:27;;;;;;;8.02;5.38;;;10.40;99.90;;;;;;5094165;28;20379;-83
2022/07/16 10:03:55;;;;;;;5.10;4.05;;;10.60;99.90;;;;;;5093485;28;20364;-85
2022/07/16 10:06:22;;;;;;;5.13;4.00;;;10.90;99.90;;;;;;5093767;28;20955;-82
2022/07/16 10:08:50;;;;;;;5.77;4.20;;;11.00;99.90;;;;;;5094792;28;20816;-86
2022/07/16 10:11:17;;;;;;;4.53;3.70;;;11.10;99.90;;;;;;5089130;28;20483;-84
2022/07/16 10:13:45;;;;;;;4.82;3.50;;;11.20;99.90;;;;;;5083833;28;20372;-86
2022/07/16 10:16:13;;;;;;;4.20;3.58;;;11.20;99.90;;;;;;5093303;28;20472;-84
2022/07/16 10:18:45;;;;;;;5.00;3.70;;;11.20;99.90;;;;;;5097893;28;20882;-86
2022/07/16 10:21:20;;;;;;;4.63;3.95;;;11.20;99.90;;;;;;5097803;28;20383;-82
2022/07/16 10:24:06;;;;;;;5.60;3.80;;;11.10;99.90;;;;;;5093480;28;20732;-85
2022/07/16 10:26:34;;;;;;;5.22;3.90;;;11.10;99.90;;;;;;5092979;28;20383;-82
2022/07/16 10:29:03;;;;;;;5.95;3.88;;;11.10;99.90;;;;;;5096509;28;20756;-83
2022/07/16 10:34:37;;;;;;;5.10;3.50;;;11.20;99.40;;;;;;5088088;28;20431;-82
2022/07/16 10:37:06;;;;;;;4.40;3.88;;;11.30;98.70;;;;;;5084904;28;20404;-83
2022/07/16 10:39:34;;;;;;;4.63;3.78;;;11.30;98.80;;;;;;5092817;28;20380;-83
2022/07/16 10:42:06;;;;;;;4.57;3.28;;;11.40;98.20;;;;;;5093052;28;20376;-83
2022/07/16 10:44:48;;;;;;;5.32;3.10;;;11.50;97.40;;;;;;5096714;28;20868;-83
2022/07/16 10:47:17;;;;;;;3.53;2.83;;;11.50;96.70;;;;;;5092992;28;20365;-82
2022/07/16 10:49:45;;;;;;;5.13;3.10;;;11.60;95.50;;;;;;5089511;28;20396;-82
2022/07/16 10:52:15;;;;;;;3.10;2.80;;;11.60;95.70;;;;;;5090977;28;20373;-83
2022/07/16 10:55:01;;;;;;;3.15;2.78;;;11.70;95.80;;;;;;5091795;28;20405;-83
2022/07/16 10:57:55;;;;;;;3.67;2.70;;;11.60;95.80;;;;;;5078020;28;20910;-83
2022/07/16 11:00:22;;;;;;;3.45;3.00;;;11.40;97.00;;;;;;5100138;28;20483;-82
2022/07/16 11:02:56;;;;;;;3.27;2.90;;;11.30;96.70;;;;;;5093850;28;20372;-82
2022/07/16 11:05:26;;;;;;;3.53;2.97;;;11.30;96.40;;;;;;5090809;28;20430;-82
2022/07/16 11:07:54;;;;;;;3.50;2.70;;;11.20;97.10;;;;;;5092149;28;20364;-82
2022/07/16 11:10:24;;;;;;;4.07;2.63;;;11.20;96.70;;;;;;5092088;28;20377;-85
2022/07/16 11:12:52;;;;;;;2.72;2.53;;;11.10;96.40;;;;;;5078292;28;20373;-84
2022/07/16 11:15:20;;;;;;;2.13;1.70;;;11.20;96.40;;;;;;5092494;28;20383;-82
2022/07/16 11:17:56;;;;;;;1.80;1.60;;;11.40;95.40;;;;;;5092000;28;20459;-82
2022/07/16 11:20:35;;;;;;;3.50;1.48;;;11.50;94.10;;;;;;5092289;28;21208;-84
2022/07/16 11:23:07;;;;;;;1.58;1.20;;;11.60;94.50;;;;;;5095141;28;20449;-84
2022/07/16 11:25:34;;;;;;;1.75;1.40;;;11.70;93.80;;;;;;5092103;28;20384;-82
2022/07/16 11:28:02;;;;;;;1.40;1.23;;;11.70;93.10;;;;;;5099307;28;20885;-83
2022/07/16 11:30:31;;;;;;;1.40;1.30;;;11.80;92.70;;;;;;5094992;28;20877;-85
2022/07/16 11:32:58;;;;;;;1.20;1.10;;;11.80;92.90;;;;;;5094201;28;20862;-85
2022/07/16 11:35:25;;;;;;;1.50;1.30;;;11.80;92.60;;;;;;5093123;28;20736;-82
2022/07/16 11:37:59;;;;;;;1.38;1.20;;;11.70;92.50;;;;;;5092256;28;20403;-83
2022/07/16 11:40:37;;;;;;;2.17;1.50;;;11.60;93.00;;;;;;5092235;28;20451;-84
2022/07/16 11:43:04;;;;;;;3.67;2.55;;;11.50;93.00;;;;;;5099080;28;20413;-82
2022/07/16 11:45:42;;;;;;;1.42;1.33;;;11.50;93.90;;;;;;5098599;28;20391;-86
2022/07/16 11:48:17;;;;;;;1.92;1.35;;;11.40;93.60;;;;;;5079103;28;20698;-83
2022/07/16 11:50:46;;;;;;;1.35;1.20;;;11.30;93.80;;;;;;5095505;28;20388;-82
2022/07/16 11:53:13;;;;;;;1.58;1.20;;;11.20;94.20;;;;;;5091266;28;20888;-82
2022/07/16 11:55:45;;;;;;;1.60;1.10;;;11.20;94.50;;;;;;5091973;28;20724;-83
2022/07/16 11:58:15;;;;;;;1.20;1.02;;;11.10;94.20;;;;;;5091381;28;20460;-86
2022/07/16 12:00:48;;;;;;;1.10;1.00;;;11.20;94.30;;;;;;5095942;28;20768;-85
2022/07/16 12:03:17;;;;;;;1.20;1.10;;;11.10;94.40;;;;;;5090930;28;20578;-84
2022/07/16 12:05:44;;;;;;;1.30;1.10;;;11.10;94.50;;;;;;5091731;28;20434;-85
2022/07/16 12:08:12;;;;;;;1.10;1.00;;;11.10;94.50;;;;;;5076914;28;20376;-84
2022/07/16 12:10:39;;;;;;;0.90;0.90;;;11.10;94.80;;;;;;5092547;28;20471;-82
2022/07/16 12:13:09;;;;;;;1.48;1.10;;;10.90;95.00;;;;;;5091166;28;20392;-83
2022/07/16 12:16:10;;;;;;;1.67;1.00;;;10.80;95.40;;;;;;5092857;28;20458;-85
2022/07/16 12:18:37;;;;;;;1.50;1.20;;;10.60;95.60;;;;;;5097374;28;20526;-83
2022/07/16 12:21:25;;;;;;;1.50;1.40;;;10.40;96.00;;;;;;5095985;28;20410;-82
2022/07/16 12:23:53;;;;;;;1.65;1.42;;;10.30;96.50;;;;;;5047995;28;20474;-84
2022/07/16 12:26:32;;;;;;;1.60;1.30;;;10.20;97.10;;;;;;5048050;28;20528;-83
2022/07/16 12:29:00;;;;;;;1.60;1.45;;;10.00;97.60;;;;;;5046544;28;20399;-82
2022/07/16 12:31:29;;;;;;;1.58;1.40;;;9.80;98.40;;;;;;5045355;28;20400;-84
2022/07/16 12:33:58;;;;;;;1.98;1.30;;;9.60;99.50;;;;;;5044632;28;20489;-84
2022/07/16 12:36:33;;;;;;;1.58;1.30;;;9.50;99.90;;;;;;5047929;28;20508;-83
2022/07/16 12:39:03;;;;;;;2.45;1.55;;;9.40;99.90;;;;;;5048201;28;20407;-82
2022/07/16 12:41:40;;;;;;;1.33;1.23;;;9.30;99.90;;;;;;5048286;28;20379;-84
2022/07/16 12:44:13;;;;;;;1.30;1.20;;;9.30;99.90;;;;;;5046176;28;20526;-84
2022/07/16 12:46:44;;;;;;;1.50;1.40;;;9.20;99.90;;;;;;5048421;28;20852;-83
2022/07/16 12:49:20;;;;;;;1.40;1.30;;;9.10;99.90;;;;;;5041124;28;20393;-83
2022/07/16 12:51:50;;;;;;;1.10;1.05;;;9.00;99.90;;;;;;5033739;28;20897;-84
2022/07/16 12:54:20;;;;;;;1.33;1.23;;;9.10;99.90;;;;;;5037983;28;20399;-82
2022/07/16 12:59:33;;;;;;;1.17;1.07;;;9.10;99.90;;;;;;5046546;28;20430;-82
2022/07/16 13:02:01;;;;;;;1.60;1.10;;;9.10;99.90;;;;;;5084729;28;20899;-84
2022/07/16 13:04:28;;;;;;;1.92;1.10;;;8.90;99.90;;;;;;5090546;28;20394;-84